Time;durP1;ratioP1;P1;durP2;ratioP2;P2;SDS_P1;SDS_P2;PMS_P1;PMS_P2;Temp;Humidity;BMP_temperature;BMP_pressure;BME280_temperature;BME280_humidity;BME280_pressure;Samples;Min_cycle;Max_cycle;Signal;HPM_P1;HPM_P2
2022/03/19 00:00:36;;;;;;;1999.90;999.90;;;;;;;-0.26;54.81;96863.78;5073301;28;20205;-86
2022/03/19 00:03:02;;;;;;;1999.90;999.90;;;;;;;-0.77;55.00;96785.88;5055805;28;20194;-87
2022/03/19 00:05:28;;;;;;;1999.90;999.90;;;;;;;-0.71;55.24;96795.84;5055013;28;20225;-85
2022/03/19 00:07:54;;;;;;;1999.90;999.90;;;;;;;-0.67;54.93;96810.25;5054944;28;20248;-85
2022/03/19 00:10:21;;;;;;;1999.90;999.90;;;;;;;-0.68;55.43;96818.09;5054678;28;20671;-85
2022/03/19 00:12:48;;;;;;;1999.90;999.90;;;;;;;-1.09;57.03;96759.41;5073540;28;20236;-86
2022/03/19 00:15:14;;;;;;;1999.90;999.90;;;;;;;-0.95;56.51;96798.16;5072822;28;20183;-86
2022/03/19 00:17:39;;;;;;;1999.90;999.90;;;;;;;-1.16;56.85;96765.88;5072457;28;20182;-85
2022/03/19 00:20:06;;;;;;;1999.90;999.90;;;;;;;-0.84;56.61;96810.44;5054876;28;20235;-86
2022/03/19 00:22:31;;;;;;;1999.90;999.90;;;;;;;-0.55;57.02;96857.81;5073360;28;20316;-85
2022/03/19 00:24:58;;;;;;;1999.90;999.90;;;;;;;-0.63;56.90;96858.28;5073212;28;20666;-87
2022/03/19 00:27:25;;;;;;;1999.90;999.90;;;;;;;-1.31;57.62;96753.88;5073339;28;20666;-86
2022/03/19 00:29:51;;;;;;;1999.90;999.90;;;;;;;-1.09;57.16;96794.75;5073167;28;20182;-86
2022/03/19 00:32:16;;;;;;;1999.90;999.90;;;;;;;-0.99;57.42;96812.19;5072927;28;20170;-84
2022/03/19 00:34:42;;;;;;;1999.90;999.90;;;;;;;-0.76;58.08;96858.16;5072114;28;20315;-85
2022/03/19 00:37:07;;;;;;;1999.90;999.90;;;;;;;-0.79;58.54;96855.78;5073163;28;20549;-85
2022/03/19 00:39:33;;;;;;;1999.90;999.90;;;;;;;-0.83;58.86;96835.38;5055019;28;20206;-85
2022/03/19 00:42:00;;;;;;;1999.90;999.90;;;;;;;-1.21;58.50;96766.13;5073149;28;20306;-87
2022/03/19 00:44:25;;;;;;;1999.90;999.90;;;;;;;-0.74;58.86;96850.31;5055095;28;20274;-89
2022/03/19 00:46:51;;;;;;;1999.90;999.90;;;;;;;-0.86;59.11;96845.88;5055030;28;20173;-89
2022/03/19 00:49:17;;;;;;;1999.90;999.90;;;;;;;-0.91;59.26;96850.50;5072297;28;20198;-85
2022/03/19 00:51:43;;;;;;;1999.90;999.90;;;;;;;-0.86;60.22;96853.63;5052679;28;20263;-85
2022/03/19 00:54:10;;;;;;;1999.90;999.90;;;;;;;-0.89;60.01;96849.50;5072017;28;20249;-85
2022/03/19 00:56:36;;;;;;;1999.90;999.90;;;;;;;-0.76;59.49;96863.34;5086369;28;20269;-85
2022/03/19 00:59:02;;;;;;;1999.90;999.90;;;;;;;-0.82;59.11;96857.72;5071524;28;20249;-85
2022/03/19 01:01:28;;;;;;;1999.90;999.90;;;;;;;-0.87;58.99;96855.41;5071821;28;20166;-85
2022/03/19 01:03:54;;;;;;;1999.90;999.90;;;;;;;-0.86;59.31;96866.56;5054154;28;20247;-85
2022/03/19 01:06:19;;;;;;;1999.90;999.90;;;;;;;-1.08;59.82;96824.81;5072523;28;20162;-86
2022/03/19 01:08:45;;;;;;;1999.90;999.90;;;;;;;-0.92;59.69;96861.75;5090267;28;20206;-85
2022/03/19 01:11:11;;;;;;;1999.90;999.90;;;;;;;-1.27;59.68;96814.75;5071777;28;20170;-85
2022/03/19 01:13:36;;;;;;;1999.90;999.90;;;;;;;-1.39;59.42;96793.06;5054583;28;20645;-84
2022/03/19 01:16:02;;;;;;;1999.90;999.90;;;;;;;-1.23;60.09;96835.16;5053780;28;20185;-86
2022/03/19 01:18:29;;;;;;;1999.90;999.90;;;;;;;-1.08;60.38;96861.84;5072161;28;20171;-85
2022/03/19 01:20:54;;;;;;;1999.90;999.90;;;;;;;-1.70;60.63;96763.03;5055438;28;20178;-86
2022/03/19 01:23:20;;;;;;;1999.90;999.90;;;;;;;-1.52;61.39;96807.59;5073117;28;20227;-85
2022/03/19 01:25:45;;;;;;;1999.90;999.90;;;;;;;-1.60;60.47;96789.13;5055428;28;20174;-85
2022/03/19 01:28:11;;;;;;;103.30;88.07;;;;;;;-1.83;59.70;96750.94;5053839;28;20679;-86
2022/03/19 01:30:37;;;;;;;66.40;30.27;;;;;;;-1.50;60.05;96808.34;5054312;28;20186;-86
2022/03/19 01:33:02;;;;;;;82.43;49.63;;;;;;;-1.50;59.91;96810.09;5054114;28;20226;-86
2022/03/19 01:35:28;;;;;;;55.97;29.83;;;;;;;-1.33;59.68;96846.94;5054133;28;20574;-85
2022/03/19 01:37:53;;;;;;;50.93;23.30;;;;;;;-1.92;59.02;96763.44;5072019;28;20624;-86
2022/03/19 01:40:20;;;;;;;46.40;27.00;;;;;;;-1.44;59.18;96848.47;5071802;28;20651;-85
2022/03/19 01:42:48;;;;;;;78.43;31.80;;;;;;;-1.40;59.66;96843.06;5053438;28;20261;-86
2022/03/19 01:45:24;;;;;;;63.57;28.63;;;;;;;-1.44;60.13;96844.13;5053266;28;20170;-86
2022/03/19 01:47:51;;;;;;;53.53;23.80;;;;;;;-1.44;59.37;96840.72;5087735;28;20182;-86
2022/03/19 01:50:19;;;;;;;56.83;23.40;;;;;;;-1.40;59.06;96835.31;5074157;28;20207;-86
2022/03/19 01:52:45;;;;;;;57.77;26.27;;;;;;;-1.45;59.56;96828.72;5071954;28;20170;-86
2022/03/19 01:55:12;;;;;;;72.60;29.90;;;;;;;-1.38;60.32;96833.44;5073208;28;20216;-86
2022/03/19 01:57:42;;;;;;;69.30;26.53;;;;;;;-1.43;59.87;96835.47;5056570;28;20239;-86
2022/03/19 02:00:10;;;;;;;71.47;25.50;;;;;;;-1.48;59.88;96823.75;5057414;28;20618;-86
2022/03/19 02:02:35;;;;;;;70.50;28.27;;;;;;;-1.81;60.25;96775.69;5075515;28;20174;-86
2022/03/19 02:05:03;;;;;;;81.47;32.40;;;;;;;-1.75;60.60;96787.44;5075807;28;20186;-86
2022/03/19 02:07:29;;;;;;;79.97;32.37;;;;;;;-1.49;61.33;96817.75;5057841;28;20159;-86
2022/03/19 02:09:59;;;;;;;85.60;30.87;;;;;;;-1.55;61.35;96812.94;5067162;28;20191;-85
2022/03/19 02:12:25;;;;;;;84.57;32.63;;;;;;;-1.76;61.59;96781.44;5064082;28;20271;-86
2022/03/19 02:14:51;;;;;;;73.30;31.23;;;;;;;-1.84;61.48;96759.59;5057043;28;20228;-86
2022/03/19 02:17:16;;;;;;;85.80;32.67;;;;;;;-1.70;61.62;96798.31;5057209;28;20277;-86
2022/03/19 02:19:50;;;;;;;98.83;39.87;;;;;;;-1.68;62.13;96815.41;5075139;28;20174;-85
2022/03/19 02:22:17;;;;;;;134.10;51.00;;;;;;;-1.87;62.70;96795.88;5067758;28;20166;-85
2022/03/19 02:27:27;;;;;;;155.10;54.73;;;;;;;-1.68;62.54;96805.06;5074756;28;20173;-86
2022/03/19 02:29:53;;;;;;;145.43;53.53;;;;;;;-1.87;63.14;96788.13;5074367;28;20599;-86
2022/03/19 02:32:18;;;;;;;162.00;56.23;;;;;;;-2.01;62.83;96769.13;5056447;28;20170;-86
2022/03/19 02:34:44;;;;;;;128.07;49.87;;;;;;;-1.81;63.49;96795.53;5056452;28;20618;-86
2022/03/19 02:37:09;;;;;;;104.50;40.97;;;;;;;-1.98;62.86;96773.25;5056904;28;20174;-83
2022/03/19 02:39:35;;;;;;;118.30;47.43;;;;;;;-1.81;63.04;96808.41;5075529;28;20158;-84
2022/03/19 02:42:06;;;;;;;83.43;33.77;;;;;;;-1.91;63.53;96801.22;5074921;28;20276;-87
2022/03/19 02:44:33;;;;;;;71.00;28.27;;;;;;;-2.08;63.41;96775.53;5074622;28;20182;-87
2022/03/19 02:47:00;;;;;;;57.97;23.60;;;;;;;-1.74;63.00;96828.66;5074720;28;20651;-85
2022/03/19 02:49:26;;;;;;;64.33;25.40;;;;;;;-2.02;62.74;96776.94;5056824;28;20287;-85
2022/03/19 02:51:53;;;;;;;63.13;24.97;;;;;;;-1.70;62.31;96837.88;5075256;28;20190;-85
2022/03/19 02:54:22;;;;;;;45.17;18.10;;;;;;;-1.74;61.58;96836.41;5074327;28;20252;-86
2022/03/19 02:56:48;;;;;;;31.83;15.97;;;;;;;-1.75;61.67;96837.31;5056377;28;20177;-85
2022/03/19 02:59:20;;;;;;;35.17;15.53;;;;;;;-2.13;62.24;96781.84;5054836;28;20174;-85
2022/03/19 03:01:51;;;;;;;30.73;15.33;;;;;;;-2.23;61.76;96771.22;5074352;28;20174;-85
2022/03/19 03:04:17;;;;;;;38.00;14.53;;;;;;;-1.90;61.85;96823.50;5056488;28;20177;-85
2022/03/19 03:06:46;;;;;;;29.37;13.60;;;;;;;-1.79;61.06;96845.31;5073657;28;20182;-85
2022/03/19 03:09:13;;;;;;;39.77;15.77;;;;;;;-1.95;60.96;96822.94;5055736;28;20194;-85
2022/03/19 03:11:39;;;;;;;34.77;14.53;;;;;;;-1.84;61.61;96837.00;5055936;28;20312;-84
2022/03/19 03:14:06;;;;;;;30.83;14.30;;;;;;;-1.77;61.22;96835.72;5073902;28;20189;-84
2022/03/19 03:16:33;;;;;;;33.57;14.77;;;;;;;-2.13;61.60;96785.28;5074322;28;20198;-83
2022/03/19 03:19:02;;;;;;;44.00;14.90;;;;;;;-1.91;61.51;96818.47;5074022;28;20201;-84
2022/03/19 03:21:27;;;;;;;34.17;14.93;;;;;;;-1.80;61.57;96835.91;5072518;28;20178;-84
2022/03/19 03:23:54;;;;;;;29.33;14.27;;;;;;;-2.10;61.38;96787.69;5056151;28;20179;-84
2022/03/19 03:26:20;;;;;;;34.10;15.37;;;;;;;-2.02;61.86;96801.00;5088302;28;20182;-84
2022/03/19 03:28:45;;;;;;;36.03;17.00;;;;;;;-1.83;61.84;96839.50;5073878;28;20220;-85
2022/03/19 03:31:11;;;;;;;33.97;17.70;;;;;;;-1.81;62.13;96836.81;5074057;28;20159;-85
2022/03/19 03:33:36;;;;;;;44.13;20.57;;;;;;;-2.08;62.18;96797.94;5055860;28;20218;-84
2022/03/19 03:36:02;;;;;;;41.67;21.23;;;;;;;-1.90;62.23;96838.16;5056324;28;20616;-84
2022/03/19 03:38:28;;;;;;;49.47;24.10;;;;;;;-2.01;62.67;96832.78;5067341;28;20174;-84
2022/03/19 03:40:54;;;;;;;106.70;42.50;;;;;;;-2.03;64.33;96826.88;5073914;28;20271;-84
2022/03/19 03:43:19;;;;;;;52.97;25.13;;;;;;;-2.04;64.29;96825.19;5074148;28;20247;-84
2022/03/19 03:45:45;;;;;;;49.30;23.90;;;;;;;-2.51;63.74;96755.63;5073785;28;20169;-84
2022/03/19 03:48:10;;;;;;;49.83;22.57;;;;;;;-2.11;64.40;96829.88;5074211;28;20324;-84
2022/03/19 03:50:37;;;;;;;39.23;19.13;;;;;;;-2.17;64.41;96830.22;5073838;28;20159;-84
2022/03/19 03:53:04;;;;;;;42.63;19.30;;;;;;;-2.65;64.49;96766.69;5073695;28;20178;-85
2022/03/19 03:55:30;;;;;;;39.60;17.97;;;;;;;-2.55;64.33;96769.59;5072936;28;20182;-84
2022/03/19 03:57:56;;;;;;;46.40;20.13;;;;;;;-2.17;64.69;96834.56;5071519;28;20228;-83
2022/03/19 04:00:21;;;;;;;43.37;20.70;;;;;;;-2.14;64.66;96840.34;5055054;28;20232;-83
2022/03/19 04:02:47;;;;;;;42.43;19.83;;;;;;;-2.35;64.31;96815.75;5073401;28;20183;-83
2022/03/19 04:05:12;;;;;;;41.10;19.93;;;;;;;-2.35;64.38;96801.13;5073804;28;20166;-84
2022/03/19 04:07:38;;;;;;;41.57;18.03;;;;;;;-2.59;64.37;96768.91;5073578;28;20165;-83
2022/03/19 04:10:05;;;;;;;42.07;18.17;;;;;;;-2.30;64.24;96813.75;5073285;28;20194;-84
2022/03/19 04:12:31;;;;;;;41.00;18.23;;;;;;;-2.19;64.20;96842.38;5073681;28;20170;-84
2022/03/19 04:14:56;;;;;;;38.57;18.97;;;;;;;-2.56;64.46;96776.50;5073576;28;20158;-84
2022/03/19 04:17:22;;;;;;;42.50;18.57;;;;;;;-2.78;64.63;96742.50;5073546;28;20631;-84
2022/03/19 04:19:47;;;;;;;47.63;19.73;;;;;;;-2.47;64.76;96791.47;5055316;28;20175;-83
2022/03/19 04:22:13;;;;;;;42.33;18.87;;;;;;;-2.31;64.46;96822.41;5073830;28;20293;-84
2022/03/19 04:24:38;;;;;;;39.63;18.53;;;;;;;-2.24;64.99;96844.34;5073102;28;20158;-84
2022/03/19 04:27:04;;;;;;;47.23;19.87;;;;;;;-2.22;64.69;96842.53;5073040;28;20704;-84
2022/03/19 04:29:30;;;;;;;58.63;23.97;;;;;;;-2.23;64.71;96840.84;5054995;28;20198;-84
2022/03/19 04:31:56;;;;;;;47.03;20.10;;;;;;;-2.64;64.82;96793.28;5055072;28;20718;-85
2022/03/19 04:34:22;;;;;;;60.03;24.20;;;;;;;-2.52;65.24;96818.41;5072808;28;20244;-87
2022/03/19 04:36:47;;;;;;;58.30;27.33;;;;;;;-2.55;65.22;96818.56;5073551;28;20199;-87
2022/03/19 04:39:13;;;;;;;66.17;25.87;;;;;;;-2.90;65.55;96759.44;5079174;28;20173;-86
2022/03/19 04:41:40;;;;;;;70.57;29.70;;;;;;;-2.34;64.92;96843.22;5084327;28;20624;-85
2022/03/19 04:44:06;;;;;;;71.70;30.40;;;;;;;-2.32;65.35;96844.75;5073148;28;20158;-85
2022/03/19 04:46:31;;;;;;;62.27;30.57;;;;;;;-2.27;65.29;96844.53;5073036;28;20187;-85
2022/03/19 04:48:57;;;;;;;70.10;30.37;;;;;;;-2.38;65.14;96818.50;5072657;28;20224;-85
2022/03/19 04:51:30;;;;;;;70.00;32.83;;;;;;;-2.06;65.19;96842.50;5076541;28;20182;-84
2022/03/19 04:53:55;;;;;;;70.50;30.70;;;;;;;-1.81;64.23;96811.84;5076366;28;20312;-84
2022/03/19 04:56:25;;;;;;;69.43;28.90;;;;;;;-1.01;62.29;96842.47;5071539;28;20257;-85
2022/03/19 04:58:52;;;;;;;72.67;31.33;;;;;;;-0.83;59.88;96806.94;5053833;28;20171;-86
2022/03/19 05:01:18;;;;;;;78.40;34.97;;;;;;;-0.26;59.59;96843.09;5073048;28;20162;-85
2022/03/19 05:03:44;;;;;;;75.47;35.10;;;;;;;-0.08;57.99;96798.75;5054637;28;20670;-86
2022/03/19 05:06:10;;;;;;;78.70;36.07;;;;;;;0.72;56.22;96844.47;5071980;28;22070;-86
2022/03/19 05:08:36;;;;;;;80.07;35.50;;;;;;;0.72;54.82;96781.44;5071892;28;20194;-85
2022/03/19 05:14:13;;;;;;;91.43;43.47;;;;;;;2.67;50.74;96819.53;5071775;28;20170;-86
2022/03/19 05:16:39;;;;;;;117.20;48.80;;;;;;;3.41;48.36;96806.88;5070964;28;20183;-84
2022/03/19 05:19:05;;;;;;;139.40;61.27;;;;;;;4.37;46.31;96814.03;5071769;28;20163;-83
2022/03/19 05:21:30;;;;;;;228.23;205.30;;;;;;;5.08;44.23;96800.28;5072343;28;20158;-84
2022/03/19 05:23:55;;;;;;;169.20;110.50;;;;;;;6.27;42.49;96863.19;5072339;28;20170;-84
2022/03/19 05:26:21;;;;;;;138.30;87.67;;;;;;;6.70;40.53;96816.56;5072501;28;20158;-86
2022/03/19 05:28:47;;;;;;;55.00;51.03;;;;;;;7.37;39.13;96810.38;5072552;28;20198;-85
2022/03/19 05:31:13;;;;;;;94.80;84.97;;;;;;;8.28;36.36;96846.28;5072921;28;20611;-85
2022/03/19 05:36:24;;;;;;;114.97;106.23;;;;;;;9.38;33.32;96812.63;5069435;28;20188;-84
2022/03/19 05:38:50;;;;;;;192.40;172.30;;;;;;;10.07;32.79;96824.81;5071058;28;20177;-85
2022/03/19 05:41:16;;;;;;;266.63;240.97;;;;;;;10.70;31.35;96823.53;5053446;28;20167;-86
2022/03/19 05:43:43;;;;;;;349.53;320.97;;;;;;;11.55;29.66;96849.41;5072771;28;20174;-84
2022/03/19 05:46:08;;;;;;;254.03;236.03;;;;;;;11.58;28.38;96774.38;5071520;28;20190;-90
2022/03/19 05:48:34;;;;;;;322.20;295.97;;;;;;;12.46;27.63;96804.84;5053553;28;20206;-86
2022/03/19 05:51:01;;;;;;;42.43;38.77;;;;;;;12.83;26.69;96795.38;5051467;28;20227;-84
2022/03/19 05:53:27;;;;;;;16.13;11.13;;;;;;;13.35;25.76;96779.59;5072849;28;20182;-85
2022/03/19 05:55:53;;;;;;;15.80;9.37;;;;;;;14.25;25.25;96840.31;5085743;28;20182;-86
2022/03/19 05:58:18;;;;;;;20.73;9.73;;;;;;;13.94;24.46;96787.53;5054042;28;20181;-86
2022/03/19 06:00:44;;;;;;;16.65;8.93;;;;;;;14.57;24.24;96818.72;5054689;28;20181;-86
2022/03/19 06:03:09;;;;;;;18.63;9.50;;;;;;;15.08;23.68;96818.63;5070448;28;20190;-86
2022/03/19 06:05:35;;;;;;;25.40;10.90;;;;;;;15.70;23.34;96857.75;5055535;28;20221;-85
2022/03/19 06:08:01;;;;;;;17.05;10.52;;;;;;;15.79;22.78;96816.75;5084637;28;20239;-89
2022/03/19 06:10:27;;;;;;;18.98;10.55;;;;;;;16.22;22.63;96828.03;5054158;28;20265;-87
2022/03/19 06:12:52;;;;;;;25.05;11.60;;;;;;;16.50;21.98;96838.59;5053756;28;20180;-86
2022/03/19 06:15:18;;;;;;;19.85;10.63;;;;;;;16.46;21.15;96779.66;5053698;28;20190;-86
2022/03/19 06:17:43;;;;;;;18.15;9.38;;;;;;;17.42;20.96;96824.69;5054344;28;20174;-86
2022/03/19 06:20:09;;;;;;;18.38;9.57;;;;;;;17.30;20.34;96781.88;5069866;28;20178;-86
2022/03/19 06:22:39;;;;;;;20.77;11.18;;;;;;;17.97;20.52;96852.75;5056090;28;20273;-85
2022/03/19 06:25:05;;;;;;;18.25;11.13;;;;;;;18.10;20.22;96850.06;5071396;28;20258;-84
2022/03/19 06:27:31;;;;;;;26.42;11.38;;;;;;;18.05;20.23;96796.56;5071284;28;20244;-85
2022/03/19 06:29:56;;;;;;;19.08;10.68;;;;;;;18.59;19.69;96854.88;5071643;28;20212;-84
2022/03/19 06:32:21;;;;;;;17.67;11.32;;;;;;;18.66;19.26;96814.81;5072215;28;20178;-84
2022/03/19 06:34:48;;;;;;;18.48;10.57;;;;;;;18.78;18.93;96811.25;5074519;28;20217;-84
2022/03/19 06:37:20;;;;;;;15.02;9.07;;;;;;;19.22;18.41;96844.25;5075311;28;20553;-84
2022/03/19 06:39:53;;;;;;;17.05;9.40;;;;;;;19.68;18.11;96854.63;5075129;28;20224;-85
2022/03/19 06:42:18;;;;;;;18.90;10.07;;;;;;;19.30;17.97;96787.06;5075293;28;20159;-84
2022/03/19 06:44:44;;;;;;;21.88;10.10;;;;;;;18.57;18.14;96813.41;5075339;28;20163;-85
2022/03/19 06:47:09;;;;;;;20.05;10.88;;;;;;;18.71;18.03;96858.50;5074946;28;20631;-85
2022/03/19 06:49:35;;;;;;;19.70;11.02;;;;;;;18.43;18.71;96852.63;5074553;28;20190;-85
2022/03/19 06:52:00;;;;;;;19.50;11.15;;;;;;;18.16;19.13;96838.56;5075017;28;20196;-88
2022/03/19 06:54:26;;;;;;;23.63;10.75;;;;;;;17.87;19.08;96807.06;5074983;28;20159;-83
2022/03/19 06:56:52;;;;;;;21.15;11.23;;;;;;;17.77;19.57;96849.28;5075074;28;20231;-82
2022/03/19 06:59:18;;;;;;;17.98;11.10;;;;;;;17.30;19.14;96854.56;5075038;28;20182;-85
2022/03/19 07:01:43;;;;;;;21.10;10.88;;;;;;;16.50;20.20;96850.06;5075138;28;20623;-81
2022/03/19 07:04:09;;;;;;;24.73;11.45;;;;;;;14.57;21.67;96808.13;5074974;28;20943;-81
2022/03/19 07:06:34;;;;;;;19.97;11.13;;;;;;;14.18;22.65;96831.47;5074976;28;20170;-81
2022/03/19 07:09:00;;;;;;;18.50;11.17;;;;;;;13.70;24.01;96806.34;5074753;28;20201;-83
2022/03/19 07:11:25;;;;;;;19.07;11.03;;;;;;;13.58;24.24;96782.16;5077567;28;20632;-84
2022/03/19 07:13:51;;;;;;;18.47;11.27;;;;;;;13.42;23.42;96822.84;5073221;28;20170;-82
2022/03/19 07:16:17;;;;;;;25.70;12.60;;;;;;;13.48;24.75;96834.53;5073785;28;20569;-82
2022/03/19 07:18:42;;;;;;;30.30;17.10;;;;;;;13.46;25.38;96800.31;5072331;28;20342;-82
2022/03/19 07:21:09;;;;;;;32.27;17.13;;;;;;;13.84;24.83;96835.47;5074648;28;20190;-82
2022/03/19 07:23:35;;;;;;;26.37;13.90;;;;;;;13.95;23.97;96835.03;5073332;28;20166;-81
2022/03/19 07:26:01;;;;;;;26.77;12.67;;;;;;;13.71;24.49;96839.75;5055760;28;20278;-82
2022/03/19 07:28:27;;;;;;;31.27;15.53;;;;;;;13.13;24.93;96783.94;5073377;28;20269;-82
2022/03/19 07:30:53;;;;;;;33.03;16.83;;;;;;;13.34;26.50;96836.13;5055247;28;20174;-82
2022/03/19 07:33:18;;;;;;;32.63;17.20;;;;;;;13.25;26.56;96833.75;5073878;28;20225;-82
2022/03/19 07:35:44;;;;;;;27.43;13.97;;;;;;;12.82;25.90;96796.38;5055929;28;20178;-82
2022/03/19 07:38:11;;;;;;;26.63;14.40;;;;;;;12.83;25.57;96811.22;5074216;28;20240;-81
2022/03/19 07:43:22;;;;;;;28.33;15.23;;;;;;;12.17;26.23;96833.75;5074409;28;20166;-82
2022/03/19 07:45:48;;;;;;;23.07;13.57;;;;;;;11.42;26.45;96816.59;5073527;28;20170;-81
2022/03/19 07:48:14;;;;;;;25.80;14.03;;;;;;;11.02;27.60;96788.47;5073561;28;20182;-81
2022/03/19 07:50:40;;;;;;;25.20;12.43;;;;;;;11.12;27.07;96811.03;5072840;28;20212;-81
2022/03/19 07:53:06;;;;;;;18.53;10.23;;;;;;;11.41;27.12;96821.06;5055438;28;20174;-81
2022/03/19 07:55:32;;;;;;;22.37;10.23;;;;;;;11.30;25.79;96830.16;5073868;28;20674;-81
2022/03/19 07:57:58;;;;;;;18.87;11.13;;;;;;;11.15;27.29;96825.72;5072630;28;20182;-82
2022/03/19 08:00:23;;;;;;;14.97;8.80;;;;;;;11.23;26.47;96801.97;5073246;28;20193;-82
2022/03/19 08:02:51;;;;;;;16.63;8.50;;;;;;;11.59;27.75;96794.47;5062977;28;20217;-82
2022/03/19 08:05:16;;;;;;;14.43;8.93;;;;;;;12.28;26.87;96829.91;5073054;28;20196;-83
2022/03/19 08:07:42;;;;;;;23.57;8.37;;;;;;;12.39;25.00;96825.03;5073281;28;20171;-82
2022/03/19 08:10:09;;;;;;;13.07;7.97;;;;;;;11.89;25.94;96779.75;5073554;28;20186;-82
2022/03/19 08:12:36;;;;;;;13.63;7.60;;;;;;;11.62;24.31;96823.97;5073332;28;20227;-83
2022/03/19 08:15:05;;;;;;;22.60;7.37;;;;;;;11.51;26.38;96832.25;5072730;28;20174;-81
2022/03/19 08:17:32;;;;;;;17.83;7.57;;;;;;;11.02;25.10;96834.09;5073088;28;20263;-81
2022/03/19 08:19:58;;;;;;;11.07;6.57;;;;;;;10.49;25.08;96834.53;5072765;28;20177;-81
2022/03/19 08:22:25;;;;;;;11.23;7.07;;;;;;;10.18;25.61;96790.38;5072546;28;20262;-81
2022/03/19 08:24:51;;;;;;;11.17;7.20;;;;;;;9.96;25.84;96819.00;5073173;28;20684;-81
2022/03/19 08:27:16;;;;;;;12.00;7.30;;;;;;;8.85;26.32;96783.84;5072332;28;20174;-81
2022/03/19 08:29:42;;;;;;;11.17;6.97;;;;;;;8.51;27.22;96762.72;5072581;28;20194;-81
2022/03/19 08:32:08;;;;;;;12.77;7.10;;;;;;;9.02;28.90;96764.59;5054184;28;20186;-81
2022/03/19 08:34:34;;;;;;;16.30;8.40;;;;;;;9.69;27.10;96812.97;5072095;28;20222;-82
2022/03/19 08:37:00;;;;;;;12.83;7.23;;;;;;;10.16;26.02;96813.34;5056783;28;20717;-82
2022/03/19 08:42:10;;;;;;;11.57;6.30;;;;;;;8.80;26.02;96751.16;5071439;28;20181;-82
2022/03/19 08:44:35;;;;;;;13.30;7.63;;;;;;;9.01;27.42;96754.25;5072568;28;20170;-83
2022/03/19 08:47:01;;;;;;;12.73;6.80;;;;;;;8.16;28.10;96739.91;5051783;28;20183;-85
2022/03/19 08:49:26;;;;;;;11.63;6.83;;;;;;;8.29;28.07;96752.66;5054314;28;20196;-86
2022/03/19 08:51:51;;;;;;;14.00;6.97;;;;;;;8.85;30.18;96780.41;5072139;28;20178;-87
2022/03/19 08:54:19;;;;;;;9.70;6.57;;;;;;;8.43;28.83;96735.59;5072125;28;20208;-87
2022/03/19 08:56:50;;;;;;;12.73;6.93;;;;;;;8.27;27.65;96765.09;5071441;28;20171;-80
2022/03/19 08:59:17;;;;;;;16.77;6.33;;;;;;;7.78;28.66;96776.88;5054022;28;20186;-84
2022/03/19 09:01:44;;;;;;;11.87;6.43;;;;;;;7.40;29.42;96743.78;5071695;28;20228;-82
2022/03/19 09:04:11;;;;;;;10.07;5.70;;;;;;;7.56;29.48;96752.69;5071359;28;20260;-80
2022/03/19 09:06:38;;;;;;;9.77;6.20;;;;;;;7.76;29.71;96787.50;5071560;28;20184;-81
2022/03/19 09:09:04;;;;;;;9.60;6.37;;;;;;;7.34;30.64;96741.75;5070669;28;20194;-80
2022/03/19 09:11:32;;;;;;;9.40;5.70;;;;;;;7.37;29.77;96742.28;5068834;28;20182;-81
2022/03/19 09:13:57;;;;;;;10.30;5.90;;;;;;;7.65;30.03;96807.81;5070736;28;20170;-81
2022/03/19 09:16:26;;;;;;;10.40;6.27;;;;;;;7.26;30.70;96797.47;5071183;28;20713;-82
2022/03/19 09:18:52;;;;;;;11.47;6.67;;;;;;;6.43;30.35;96759.69;5052201;28;20206;-81
2022/03/19 09:21:19;;;;;;;12.37;6.53;;;;;;;6.81;30.96;96789.44;5070772;28;20217;-80
2022/03/19 09:23:49;;;;;;;9.97;6.23;;;;;;;6.65;30.91;96797.03;5068172;28;20790;-81
2022/03/19 09:26:16;;;;;;;14.10;6.90;;;;;;;6.63;31.77;96772.78;5069698;28;20315;-80
2022/03/19 09:28:45;;;;;;;10.17;6.10;;;;;;;6.94;30.96;96789.94;5069038;28;20206;-81
2022/03/19 09:31:13;;;;;;;9.33;5.87;;;;;;;6.79;30.46;96786.13;5068535;28;20179;-80
2022/03/19 09:33:39;;;;;;;10.27;6.30;;;;;;;6.87;31.50;96786.25;5071215;28;20221;-80
2022/03/19 09:36:05;;;;;;;13.53;6.90;;;;;;;7.03;31.64;96789.09;5071730;28;20647;-84
2022/03/19 09:38:31;;;;;;;13.23;6.40;;;;;;;6.47;31.38;96699.25;5074924;28;20197;-82
2022/03/19 09:40:58;;;;;;;13.13;6.03;;;;;;;6.68;31.17;96781.03;5071764;28;20190;-83
2022/03/19 09:43:25;;;;;;;13.93;6.70;;;;;;;6.29;32.00;96749.66;5071478;28;20189;-82
2022/03/19 09:45:51;;;;;;;12.03;6.63;;;;;;;6.33;31.73;96777.19;5071169;28;20182;-81
2022/03/19 09:48:16;;;;;;;10.37;5.93;;;;;;;6.37;31.54;96775.94;5068325;28;20206;-83
2022/03/19 09:50:42;;;;;;;8.70;5.27;;;;;;;6.03;31.39;96719.78;5053662;28;20669;-81
2022/03/19 09:53:09;;;;;;;10.67;5.63;;;;;;;6.42;30.86;96768.50;5070533;28;20174;-82
2022/03/19 09:55:38;;;;;;;9.03;5.00;;;;;;;6.05;30.33;96780.59;5070537;28;20230;-83
2022/03/19 09:58:04;;;;;;;13.47;6.17;;;;;;;5.34;31.62;96717.13;5073627;28;20193;-84
2022/03/19 10:00:30;;;;;;;12.33;5.80;;;;;;;5.47;32.83;96743.81;5070400;28;20170;-82
2022/03/19 10:03:06;;;;;;;10.07;5.57;;;;;;;5.43;31.88;96789.47;5070977;28;20178;-83
2022/03/19 10:08:40;;;;;;;8.83;5.70;;;;;;;4.92;32.36;96712.03;5078747;28;20202;-82
2022/03/19 10:11:16;;;;;;;9.77;5.50;;;;;;;5.01;32.65;96749.56;5073384;28;20271;-81
2022/03/19 10:13:44;;;;;;;10.10;4.90;;;;;;;5.17;31.94;96781.22;5074581;28;20178;-82
2022/03/19 10:16:10;;;;;;;11.03;5.37;;;;;;;4.65;32.61;96716.94;5075141;28;20192;-81
2022/03/19 10:18:36;;;;;;;8.87;5.03;;;;;;;4.73;32.36;96721.50;5071582;28;20181;-82
2022/03/19 10:21:14;;;;;;;7.57;4.97;;;;;;;5.07;32.63;96787.34;5076553;28;20183;-81
2022/03/19 10:23:41;;;;;;;10.07;5.50;;;;;;;4.68;33.37;96721.88;5074536;28;20214;-82
2022/03/19 10:26:07;;;;;;;9.13;4.70;;;;;;;4.42;33.69;96737.09;5074704;28;20677;-82
2022/03/19 10:28:34;;;;;;;9.40;5.77;;;;;;;4.83;33.69;96767.59;5074453;28;20191;-82
2022/03/19 10:31:03;;;;;;;9.67;5.83;;;;;;;4.66;33.85;96713.38;5071763;28;20302;-81
2022/03/19 10:33:30;;;;;;;11.80;6.27;;;;;;;5.06;33.41;96764.81;5069337;28;20312;-83
2022/03/19 10:36:11;;;;;;;7.40;4.47;;;;;;;5.00;33.54;96760.94;5074203;28;20709;-81
2022/03/19 10:38:42;;;;;;;18.10;6.00;;;;;;;5.08;34.22;96753.31;5071833;28;20606;-81
2022/03/19 10:41:08;;;;;;;9.80;4.43;;;;;;;4.99;33.58;96769.72;5075173;28;20190;-80
2022/03/19 10:43:34;;;;;;;13.37;5.50;;;;;;;5.01;34.32;96765.22;5073287;28;20174;-81
2022/03/19 10:46:02;;;;;;;8.27;5.60;;;;;;;5.16;34.12;96747.41;5076056;28;20166;-81
2022/03/19 10:48:30;;;;;;;8.33;4.67;;;;;;;5.12;33.17;96774.72;5072964;28;20206;-81
2022/03/19 10:50:57;;;;;;;12.00;5.60;;;;;;;5.08;34.29;96765.53;5071450;28;20961;-81
2022/03/19 10:53:24;;;;;;;8.37;4.70;;;;;;;4.88;33.19;96739.31;5071113;28;20178;-81
2022/03/19 10:55:50;;;;;;;11.07;4.73;;;;;;;4.81;33.32;96722.53;5072579;28;20674;-81
2022/03/19 10:58:16;;;;;;;12.27;5.20;;;;;;;4.51;32.95;96704.22;5073535;28;20202;-81
2022/03/19 11:00:43;;;;;;;16.13;5.30;;;;;;;4.78;33.05;96761.06;5074296;28;20652;-81
2022/03/19 11:03:17;;;;;;;8.73;5.10;;;;;;;4.85;33.76;96760.44;5074306;28;20228;-81
2022/03/19 11:05:45;;;;;;;7.57;4.60;;;;;;;5.01;34.15;96743.50;5072114;28;20633;-83
2022/03/19 11:08:13;;;;;;;7.40;4.87;;;;;;;5.15;33.40;96759.66;5072839;28;20265;-83
2022/03/19 11:10:39;;;;;;;9.93;4.97;;;;;;;5.04;33.04;96753.66;5070595;28;20201;-83
2022/03/19 11:13:06;;;;;;;6.73;4.33;;;;;;;4.69;34.00;96752.22;5074068;28;20541;-82
2022/03/19 11:15:34;;;;;;;55.23;13.23;;;;;;;4.44;34.21;96682.22;5055968;28;20187;-82
2022/03/19 11:18:07;;;;;;;10.03;4.73;;;;;;;4.48;34.19;96705.31;5069092;28;20276;-81
2022/03/19 11:20:33;;;;;;;8.90;5.07;;;;;;;4.85;34.30;96743.94;5069979;28;20182;-82
2022/03/19 11:23:02;;;;;;;9.17;5.00;;;;;;;4.81;34.58;96700.81;5072771;28;20178;-84
2022/03/19 11:25:30;;;;;;;9.53;5.17;;;;;;;5.29;34.59;96734.97;5069058;28;20175;-82
2022/03/19 11:28:09;;;;;;;11.20;5.43;;;;;;;5.42;33.85;96746.03;5073394;28;20175;-82
2022/03/19 11:30:45;;;;;;;6.10;4.13;;;;;;;5.07;34.74;96720.31;5070883;28;20197;-81
2022/03/19 11:33:19;;;;;;;7.53;4.33;;;;;;;5.13;35.12;96703.28;5071718;28;20288;-83